Weather observations for the past three days for
Erie Municipal Airport
Imperial (Metric)
Date Time (mdt) Wind (mph) Vis. (mi.) Weather Sky Cond. Temperature (ºF) Relative Humidity Wind Chill (°F) Heat Index (°F) Pressure Precipitation (in)
Air Dwpt 6 hour altimeter (in) sea level (mb) 1 hr 3 hr 6 hr
Max. Min.
02 16:15 Vrbl 6 10.00 Fair CLR 71.8 1 6% 30.03 0.0
02 15:55 E 9 10.00 Fair CLR 72.7 1.6 6% 30.04 0.0
02 15:35 E 7 10.00 Fair CLR 72.5 1.6 6% 30.05 0.0
02 15:15 S 9 10.00 Fair CLR 71.4 4.1 7% 30.06 0.0
02 14:55 Vrbl 3 10.00 Fair CLR 71.1 6.8 8% 30.07 0.0
02 14:35 SE 8 G 17 10.00 Fair CLR 70.5 8.8 9% 30.08 0.0
02 14:15 E 9 10.00 Fair CLR 70.5 9.3 9% 30.09 0.0
02 13:55 Vrbl 5 10.00 Fair CLR 69.8 10.2 10% 30.09 0.0
02 13:35 E 8 10.00 Fair CLR 69.1 9.7 10% 30.1 0.0
02 13:15 Vrbl 7 10.00 Fair CLR 68.5 10.6 10% 30.11 0.0
02 12:55 Vrbl 6 10.00 Fair CLR 66.9 10.9 11% 30.12 0.0
02 12:35 Vrbl 3 10.00 Fair CLR 65.3 10.9 12% 30.13 0.0
02 12:15 Calm 10.00 Fair CLR 65.8 12.7 13% 30.14 0.0
02 11:55 Vrbl 6 10.00 Fair CLR 66.2 11.7 12% 30.15 0.0
02 11:35 SE 9 10.00 Fair CLR 64.9 12.2 13% 30.15 0.0
02 11:15 E 7 10.00 Fair CLR 64.8 11.3 12% 30.16 0.0
02 10:55 SE 7 10.00 Fair CLR 64.2 12 13% 30.16 0.0
02 10:35 Calm 10.00 Fair CLR 62.1 12.2 14% 30.16 0.0
02 10:15 Calm 10.00 Fair CLR 61.5 14.7 16% 30.17 0.0
02 09:55 Vrbl 3 10.00 Fair CLR 61.9 13.5 15% 30.17 0.0
02 09:35 Calm 10.00 Fair CLR 60.6 18.1 19% 30.17 0.0
02 09:15 Vrbl 3 10.00 Fair CLR 59 18.9 21% 30.18 0.0
02 08:55 Vrbl 3 10.00 Fair CLR 56.5 19.9 24% 30.18 0.0
02 08:35 S 6 10.00 Fair CLR 54.1 20.1 26% 30.19 0.0
02 08:15 Calm 10.00 Fair CLR 51.3 21 30% 30.19 0.0
02 07:55 SW 3 10.00 Fair CLR 48 21.9 36% 30.19 0.0
02 07:35 SW 3 10.00 Fair CLR 45 22.6 41% 30.19 0.0
02 07:15 Calm 10.00 Fair CLR 41 22.6 48% 30.19 0.0
02 06:55 Calm 10.00 Fair CLR 36.9 24.1 60% 30.19 0.0
02 06:35 S 3 10.00 Fair CLR 31.5 22.8 70% 30.19 0.0
02 06:15 Calm 9.00 Fair CLR 29.7 21.2 71% 30.19 0.0
02 05:55 Calm 10.00 Fair CLR 29.1 20.1 69% 30.19 0.0
02 05:35 Calm 10.00 Fair CLR 29.5 21 71% 30.18 0.0
02 05:15 Calm 10.00 Fair CLR 31.5 21.6 67% 30.18 0.0
02 04:55 Calm 10.00 Fair CLR 30.9 21.7 69% 30.17 0.0
02 04:35 Calm 10.00 Fair CLR 30.9 22.1 70% 30.17 0.0
02 04:15 Calm 10.00 Fair CLR 32.7 20.5 61% 30.17 0.0
02 03:55 Calm 10.00 Fair CLR 33.1 20.5 60% 30.17 0.0
02 03:35 Calm 10.00 Fair CLR 33.8 19.6 56% 30.16 0.0
02 03:15 Calm 10.00 Fair CLR 35.2 20.3 55% 30.16 0.0
02 02:55 Calm 10.00 Fair CLR 35.4 21.4 57% 30.16 0.0
02 02:35 Calm 10.00 Fair CLR 35.8 20.5 54% 30.16 0.0
02 02:15 Calm 10.00 Fair CLR 36.7 20.3 52% 30.16 0.0
02 01:55 Calm 10.00 Fair CLR 38.5 21.2 50% 30.16 0.0
02 01:15 S 5 10.00 Fair CLR 43.3 21.2 41% 41 30.17 0.0
02 00:55 S 3 10.00 Fair CLR 38.7 19.4 46% 30.17 0.0
02 00:35 Calm 10.00 A Few Clouds FEW095 41.4 19.2 41% 30.17 0.0
02 00:15 Calm 10.00 Mostly Cloudy BKN100 43.9 18.7 36% 30.17 0.0
01 23:55 Calm 10.00 Overcast OVC095 47.7 18.9 32% 30.17 0.0
01 23:35 Calm 10.00 Overcast OVC095 47.8 17.6 30% 30.17 0.0
01 23:10 Calm 10.00 Mostly Cloudy BKN095 47.3 16.7 29% 30.16 0.0
01 22:55 Calm 10.00 Mostly Cloudy BKN090 47.5 17.2 30% 30.16 0.0
01 22:35 Calm 10.00 Overcast OVC095 47.7 17.8 30% 30.16 0.0
01 22:15 Calm 10.00 Overcast OVC090 49.3 17.2 28% 30.15 0.0
01 21:55 Calm 10.00 Overcast OVC095 50 15.6 25% 30.15 0.0
01 21:35 NE 3 10.00 Overcast OVC095 52.5 13.8 21% 30.14 0.0
01 21:15 NE 5 10.00 Overcast BKN095 OVC110 51.6 14.4 23% 30.13 0.0
01 20:55 Calm 10.00 Mostly Cloudy BKN100 50.2 15.4 25% 30.12 0.0
01 20:35 E 3 10.00 Partly Cloudy SCT100 SCT120 51.8 14.4 22% 30.11 0.0
01 20:15 NE 3 9.00 Partly Cloudy FEW100 SCT120 53.6 13.6 20% 30.1 0.0
01 19:55 NE 5 10.00 A Few Clouds FEW100 56.1 13.3 18% 30.09 0.0
01 19:35 N 7 10.00 Partly Cloudy SCT110 59.4 13.1 16% 30.09 0.0
01 19:15 NE 7 10.00 Mostly Cloudy BKN100 60.4 12.4 15% 30.08 0.0
01 18:55 N 7 10.00 Mostly Cloudy BKN100 BKN120 61.5 13.5 15% 30.07 0.0
01 18:35 N 6 10.00 Partly Cloudy SCT110 61.7 12 14% 30.07 0.0
01 18:15 NW 15 G 26 10.00 Mostly Cloudy BKN110 63.5 10.2 12% 30.06 0.0
01 17:55 Calm 10.00 A Few Clouds FEW100 61.7 10.2 13% 30.07 0.0
01 17:35 Vrbl 3 10.00 Fair CLR 62.6 9.9 12% 30.07 0.0
01 17:15 NW 7 10.00 Fair CLR 63 10.2 12% 30.07 0.0
01 16:55 E 9 10.00 Fair CLR 62.6 11.1 13% 30.07 0.0
01 16:35 NE 6 10.00 Fair CLR 62.6 10.9 13% 30.07 0.0
01 16:15 Vrbl 6 10.00 Fair CLR 62.1 11.3 13% 30.07 0.0
01 15:55 Vrbl 7 10.00 Fair CLR 61.9 11.1 13% 30.08 0.0
01 15:35 N 9 10.00 Fair CLR 62.8 11.5 13% 30.09 0.0
01 15:15 Vrbl 3 10.00 Fair CLR 61.5 10.6 13% 30.09 0.0
01 14:55 Vrbl 3 10.00 Fair CLR 60.6 11.1 14% 30.1 0.0
01 14:35 Vrbl 7 10.00 Fair CLR 61.7 12.9 15% 30.11 0.0
01 14:15 S 5 10.00 Fair CLR 60.6 12.9 15% 30.11 0.0
01 13:55 Vrbl 7 10.00 Fair CLR 60.3 16 18% 30.11 0.0
01 13:35 Vrbl 6 10.00 Fair CLR 58.3 16.2 19% 30.11 0.0
01 13:15 N 9 10.00 Fair CLR 58.5 16.3 19% 30.12 0.0
01 12:55 NW 6 10.00 Fair CLR 58.5 16.2 19% 30.12 0.0
01 12:35 Vrbl 7 10.00 Fair CLR 58.8 18 20% 30.12 0.0
01 12:15 Vrbl 5 10.00 Fair CLR 56.8 17.4 21% 30.13 0.0
01 11:55 N 6 10.00 Fair CLR 56.8 16.9 21% 30.13 0.0
01 11:35 E 6 10.00 Fair CLR 55.9 17.6 22% 30.14 0.0
01 11:15 Vrbl 7 10.00 Partly Cloudy SCT075 55.8 18.9 24% 30.15 0.0
01 10:55 E 5 10.00 A Few Clouds FEW075 55.9 19 24% 30.15 0.0
01 10:35 W 6 10.00 Fair CLR 55.8 19.6 24% 30.15 0.0
01 10:15 Calm 10.00 Fair CLR 53.6 18.9 25% 30.15 0.0
01 09:55 SE 5 10.00 Fair CLR 52.5 23.5 32% 30.15 0.0
01 09:35 Vrbl 3 10.00 Fair CLR 51.6 25.5 36% 30.15 0.0
01 09:15 Calm 10.00 Fair CLR 49.6 25.5 39% 30.15 0.0
01 08:55 Calm 10.00 Fair CLR 48.6 27 43% 30.15 0.0
01 08:35 Calm 10.00 Fair CLR 48 27.1 44% 30.15 0.0
01 08:15 Calm 10.00 Fair CLR 44.1 27.1 51% 30.16 0.0
01 07:55 Calm 10.00 Fair CLR 42.4 28.4 58% 30.15 0.0
01 07:35 Calm 10.00 Fair CLR 39.6 28.6 65% 30.16 0.0
01 07:15 Calm 10.00 Fair CLR 35.4 29.5 79% 30.16 0.0
01 06:55 Calm 10.00 Fair CLR 30.6 27.3 88% 30.15 0.0
01 06:35 Calm 10.00 Fair CLR 27.1 25.9 95% 30.14 0.0
01 06:15 Calm 2.00 Fog/Mist CLR 27 26.2 97% 30.14 0.0
01 05:55 Calm 9.00 Fair CLR 26.2 25.3 96% 30.14 0.0
01 05:35 Calm 10.00 Fair CLR 26.6 26.1 98% 30.14 0.0
01 05:15 Calm 10.00 Fair CLR 28.2 27.5 97% 30.14 0.0
01 04:55 Calm 9.00 Fair CLR 26.6 25.9 97% 30.14 0.0
01 04:35 Calm 10.00 Fair CLR 27.1 26.2 96% 30.14 0.0
01 04:15 Calm 10.00 Fair CLR 28.2 27.3 96% 30.14 0.0
01 03:55 NW 3 10.00 Fair CLR 27.9 26.6 95% 30.14 0.0
01 03:35 Calm 10.00 Fair CLR 30.6 29.3 95% 30.14 0.0
01 03:15 Calm 10.00 Fair CLR 30 28.4 94% 30.14 0.0
01 02:55 Calm 10.00 Fair CLR 31.5 29.7 93% 30.14 0.0
01 02:35 Calm 10.00 Fair CLR 33.1 30.7 91% 30.14 0.0
01 02:15 Calm 10.00 Fair CLR 32 29.3 90% 30.15 0.0
01 01:55 Calm 10.00 Fair CLR 32.9 29.7 88% 30.15 0.0
01 01:35 S 3 10.00 Fair CLR 35.8 31.6 85% 30.16 0.0
01 01:15 S 3 10.00 A Few Clouds FEW140 31.5 28.8 90% 30.16 0.0
01 00:55 Calm 10.00 Partly Cloudy SCT140 32.9 30.4 90% 30.16 0.0
01 00:35 Calm 10.00 Fair CLR 32.5 29.7 89% 30.16 0.0
01 00:15 Calm 10.00 Fair CLR 34 30.9 89% 30.17 0.0
30 23:55 Calm 10.00 Fair CLR 33.1 29.8 88% 30.16 0.0
30 23:35 Calm 10.00 Fair CLR 35.4 30.7 83% 30.16 0.0
30 22:35 Calm 10.00 A Few Clouds FEW150 36.5 30.4 79% 30.16 0.0
30 22:15 Calm 10.00 Fair CLR 37 31.8 81% 30.16 0.0
30 21:55 Calm 10.00 A Few Clouds FEW085 38.1 30 73% 30.16 0.0
30 21:35 Calm 10.00 Partly Cloudy SCT085 38.1 29.1 70% 30.16 0.0
30 21:15 Calm 10.00 A Few Clouds FEW080 40.1 30 67% 30.15 0.0
30 20:55 Calm 10.00 Mostly Cloudy BKN080 41.4 29.7 63% 30.15 0.0
30 20:35 W 3 10.00 Overcast OVC080 43.3 30 59% 30.14 0.0
30 19:55 W 3 10.00 Mostly Cloudy SCT043 BKN060 46 29.8 53% 30.13 0.0
30 19:35 NW 5 8.00 Overcast FEW044 OVC060 47.1 29.7 51% 46 30.13 0.0
30 19:15 N 3 8.00 Overcast FEW043 OVC055 47.8 29.8 50% 30.12 0.0
30 18:55 N 6 9.00 Mostly Cloudy FEW043 BKN060 47.8 30 50% 46 30.12 0.0
30 18:35 Calm 9.00 A Few Clouds FEW047 48.2 28.8 47% 30.12 0.0
30 18:15 Calm 8.00 Partly Cloudy SCT047 SCT065 48.2 28.8 47% 30.12 0.0
30 17:55 Calm 9.00 Overcast BKN046 OVC065 48 29.1 48% 30.11 0.0
30 17:35 Calm 9.00 Overcast OVC045 48.2 29.3 48% 30.12 0.0
30 17:15 Calm 9.00 Overcast BKN046 OVC065 47.8 29.5 49% 30.11 0.0
30 16:55 S 6 9.00 Overcast BKN045 BKN050 OVC065 49.3 29.8 47% 47 30.11 0.0
30 16:35 Calm 9.00 Overcast OVC045 47.8 28.6 47% 30.11 0.0
30 16:15 E 6 10.00 Overcast BKN043 OVC060 48.7 28.8 46% 47 30.12 0.0
30 15:55 SE 6 10.00 Overcast BKN044 OVC060 48.7 28.2 45% 47 30.12 0.0
30 15:35 E 6 10.00 Overcast OVC042 48.2 28.8 47% 46 30.13 0.0
30 15:15 Vrbl 6 10.00 Overcast OVC042 48 27.7 45% 46 30.13 0.0
30 14:55 NE 5 10.00 Overcast OVC044 47.5 28 47% 46 30.14 0.0
30 14:35 Calm 9.00 Overcast OVC040 46.4 27.5 48% 30.13 0.0
30 14:15 Vrbl 3 9.00 Overcast OVC039 46.6 28 49% 30.14 0.0
30 13:55 E 7 9.00 Overcast OVC039 46.6 28.2 49% 44 30.14 0.0
30 13:35 E 7 9.00 Overcast OVC038 46.8 28.8 50% 44 30.14 0.0
30 13:15 SE 5 9.00 Overcast OVC037 46.2 29.7 53% 45 30.14 0.0
30 12:55 E 3 9.00 Overcast OVC039 45.9 29.1 52% 30.14 0.0
30 12:35 E 9 9.00 Overcast OVC039 46 29.5 53% 42 30.15 0.0
30 12:15 E 9 9.00 Overcast OVC039 46.4 30 53% 42 30.15 0.0
30 11:55 E 8 9.00 Overcast OVC037 46.4 29.1 51% 43 30.16 0.0
30 11:35 NE 8 9.00 Overcast OVC037 46.4 28.9 51% 43 30.16 0.0
30 11:15 E 9 9.00 Overcast BKN037 OVC060 47.8 28.8 48% 44 30.16 0.0
30 10:55 NE 9 10.00 Overcast FEW036 OVC055 46.8 28.6 49% 43 30.16 0.0
30 10:35 N 8 10.00 Overcast OVC060 45.9 28.2 50% 42 30.17 0.0
30 10:15 NE 10 10.00 Overcast BKN050 OVC065 45.1 28.6 52% 40 30.17 0.0
30 09:55 NE 7 10.00 Overcast OVC049 43.9 29.1 56% 40 30.17 0.0
30 09:35 NE 6 10.00 Overcast OVC047 43.5 28.9 57% 41 30.17 0.0
30 09:15 NE 7 9.00 Overcast OVC047 43.2 28 55% 40 30.17 0.0
30 08:55 NE 7 10.00 Overcast OVC049 42.6 27.7 56% 39 30.17 0.0
30 08:35 NE 8 9.00 Overcast FEW032 OVC046 42.1 27.5 56% 38 30.17 0.0
30 08:15 NE 10 9.00 Overcast OVC039 42.8 26.8 53% 38 30.17 0.0
30 07:55 NE 9 9.00 Overcast FEW027 OVC038 43.2 26.4 52% 38 30.17 0.0
30 07:35 NE 7 10.00 Overcast FEW026 BKN038 OVC065 43.2 27 53% 40 30.16 0.0
30 07:15 N 5 10.00 Overcast FEW029 SCT039 OVC065 43.3 26.6 52% 41 30.15 0.0
30 06:55 N 5 10.00 Overcast SCT043 OVC060 43.3 27 53% 41 30.15 0.0
30 06:35 N 7 10.00 Overcast OVC060 42.8 27 54% 39 30.14 0.0
30 06:15 N 5 10.00 Overcast FEW049 BKN065 OVC080 42.4 25.9 52% 40 30.14 0.0
30 05:55 N 5 10.00 Overcast BKN065 OVC085 42.3 26.6 54% 40 30.14 0.0
30 05:35 N 5 10.00 Overcast BKN065 OVC090 42.8 27.3 54% 41 30.14 0.0
30 05:15 N 3 10.00 Overcast BKN060 OVC095 43.2 28.2 56% 30.13 0.0
30 04:55 N 7 10.00 Overcast BKN060 OVC100 43.5 28 55% 40 30.13 0.0
30 04:35 N 6 10.00 Overcast FEW075 OVC100 43.9 28.8 55% 41 30.13 0.0
30 04:15 N 5 10.00 Overcast BKN075 OVC100 43.9 32 63% 42 30.13 0.0
30 03:55 NW 6 10.00 Overcast OVC075 42.4 33.8 72% 39 30.13 0.0
30 03:35 NW 5 10.00 Overcast FEW060 OVC080 42.3 33.4 71% 40 30.13 0.0
30 03:15 N 3 10.00 Overcast BKN060 BKN080 OVC090 43.9 34.2 69% 30.13 0.0
30 02:55 NW 6 10.00 Overcast BKN065 OVC080 44.6 34.3 67% 42 30.13 0.0
30 02:35 NW 6 10.00 Overcast OVC070 44.4 35.1 70% 42 30.12 0.0
30 02:15 NW 6 10.00 Overcast BKN065 OVC090 44.4 35.1 70% 42 30.13 0.0
30 01:55 NW 5 10.00 Overcast SCT070 OVC090 44.2 35.4 71% 42 30.13 0.0
30 01:35 NW 6 10.00 Overcast BKN070 OVC095 44.2 35.6 72% 41 30.13 0.0
30 01:15 NW 5 10.00 Overcast FEW070 OVC095 44.4 35.4 71% 42 30.14 0.0
30 00:55 NW 8 10.00 Overcast BKN065 OVC095 44.8 34.5 67% 41 30.14 0.0
30 00:35 N 10 10.00 Overcast BKN060 OVC075 46.2 34.2 63% 42 30.15 0.0
30 00:15 NW 7 10.00 Overcast OVC065 46.6 34.9 64% 44 30.14 0.0
29 23:55 NW 10 10.00 Overcast OVC065 46.6 35.4 65% 42 30.14 0.0
29 23:35 NW 6 10.00 Overcast SCT055 OVC070 46.6 36.7 69% 44 30.14 0.0
29 23:15 W 8 10.00 Overcast OVC055 46.4 37.9 72% 43 30.15 0.0
29 22:55 W 6 10.00 Overcast OVC055 46.9 37.8 71% 45 30.15 0.0
29 22:35 Calm 10.00 Overcast OVC060 47.3 37.9 70% 30.15 0.0
29 22:15 Calm 10.00 Overcast OVC065 46.4 38.8 75% 30.15 0.0
29 21:55 SW 3 10.00 Overcast BKN065 BKN080 OVC140 46.9 38.5 73% 30.14 0.0
29 21:35 W 6 10.00 Mostly Cloudy FEW065 SCT080 BKN140 46 38.7 76% 44 30.14 0.0
29 21:15 NW 6 10.00 Partly Cloudy FEW080 SCT110 46.6 37.9 72% 44 30.13 0.0
29 20:55 NE 5 10.00 Mostly Cloudy FEW065 BKN100 47.3 38.7 72% 46 30.13 0.0
29 20:35 W 6 10.00 Overcast BKN065 OVC100 47.1 39 74% 45 30.11 0.0
29 20:15 NW 9 10.00 Mostly Cloudy SCT060 BKN100 48.2 37.8 67% 45 30.11 0.0
29 19:55 W 8 10.00 Mostly Cloudy SCT044 BKN100 48 38.3 69% 45 30.1 0.0
29 19:35 W 7 9.00 Light Rain BKN047 48.6 38.1 67% 46 30.1 0.0
29 19:15 W 7 10.00 Overcast BKN048 OVC060 49.5 39.4 68% 47 30.09 0.0
29 18:55 SW 7 10.00 Overcast SCT048 OVC060 49.6 39.2 67% 47 30.08 0.0
29 18:35 W 7 10.00 Overcast FEW026 BKN060 BKN075 OVC090 49.1 40.1 71% 47 30.08 0.0 0.01
29 18:15 Vrbl 3 8.00 Light Rain FEW025 SCT031 BKN040 BKN090 49.6 39.7 69% 30.07 0.0 0.01
29 17:55 NW 8 6.00 Light Rain FEW030 BKN040 BKN049 OVC060 49.8 40.1 69% 47 30.07 0.0
29 17:35 W 14 10.00 Overcast FEW038 OVC060 54 34.2 47% 30.06 0.0
29 17:15 SW 8 10.00 Overcast OVC060 54.3 32.7 44% 30.05 0.0
29 16:55 W 6 10.00 Mostly Cloudy BKN070 BKN085 55.4 32.7 42% 30.04 0.0
29 16:35 Vrbl 5 10.00 Mostly Cloudy SCT041 BKN055 55.8 36.1 48% 30.04 0.0
Date Time (mdt) Wind (mph) Vis. (mi.) Weather Sky Cond. Air Dwpt Max. Min. Relative Humidity Wind Chill (°F) Heat Index (°F) altimeter (in) sea level (mb) 1 hr 3 hr 6 hr
6 hour
Temperature (ºF) Pressure Precipitation (in)